sensor_id;sensor_type;location;lat;lon;timestamp;pressure;altitude;pressure_sealevel;temperature;humidity
65983;BME280;52740;40.620;-8.640;2022-07-18T00:00:33;101384.44;;;19.29;100.00
65983;BME280;52740;40.620;-8.640;2022-07-18T00:02:33;101378.06;;;19.32;100.00
65983;BME280;52740;40.620;-8.640;2022-07-18T00:04:35;101385.19;;;19.33;100.00
65983;BME280;52740;40.620;-8.640;2022-07-18T00:06:35;101397.94;;;19.30;100.00
65983;BME280;52740;40.620;-8.640;2022-07-18T00:08:36;101399.47;;;19.31;100.00
65983;BME280;52740;40.620;-8.640;2022-07-18T00:10:37;101398.69;;;19.31;100.00
65983;BME280;52740;40.620;-8.640;2022-07-18T00:12:38;101398.28;;;19.32;100.00
65983;BME280;52740;40.620;-8.640;2022-07-18T00:14:38;101395.16;;;19.27;100.00
65983;BME280;52740;40.620;-8.640;2022-07-18T00:16:39;101392.78;;;19.29;100.00
65983;BME280;52740;40.620;-8.640;2022-07-18T00:18:40;101380.47;;;19.26;100.00
65983;BME280;52740;40.620;-8.640;2022-07-18T00:20:41;101378.88;;;19.29;100.00
65983;BME280;52740;40.620;-8.640;2022-07-18T00:22:43;101379.63;;;19.33;100.00
65983;BME280;52740;40.620;-8.640;2022-07-18T00:24:43;101382.84;;;19.28;100.00
65983;BME280;52740;40.620;-8.640;2022-07-18T00:26:44;101385.28;;;19.22;100.00
65983;BME280;52740;40.620;-8.640;2022-07-18T00:28:45;101379.34;;;19.20;100.00
65983;BME280;52740;40.620;-8.640;2022-07-18T00:30:46;101375.75;;;19.23;100.00
65983;BME280;52740;40.620;-8.640;2022-07-18T00:32:46;101374.16;;;19.26;100.00
65983;BME280;52740;40.620;-8.640;2022-07-18T00:34:47;101369.44;;;19.19;100.00
65983;BME280;52740;40.620;-8.640;2022-07-18T00:36:48;101381.72;;;19.22;100.00
65983;BME280;52740;40.620;-8.640;2022-07-18T00:38:48;101379.75;;;19.19;100.00
65983;BME280;52740;40.620;-8.640;2022-07-18T00:40:50;101376.63;;;19.17;100.00
65983;BME280;52740;40.620;-8.640;2022-07-18T00:42:50;101379.34;;;19.20;100.00
65983;BME280;52740;40.620;-8.640;2022-07-18T00:44:55;101371.81;;;19.21;100.00
65983;BME280;52740;40.620;-8.640;2022-07-18T00:46:59;101368.59;;;19.26;100.00
65983;BME280;52740;40.620;-8.640;2022-07-18T00:49:00;101364.66;;;19.23;100.00
65983;BME280;52740;40.620;-8.640;2022-07-18T00:51:01;101361.50;;;19.18;100.00
65983;BME280;52740;40.620;-8.640;2022-07-18T00:53:01;101367.50;;;19.16;100.00
65983;BME280;52740;40.620;-8.640;2022-07-18T00:55:04;101364.75;;;19.13;100.00
65983;BME280;52740;40.620;-8.640;2022-07-18T00:57:05;101361.59;;;19.11;100.00
65983;BME280;52740;40.620;-8.640;2022-07-18T00:59:06;101357.56;;;19.15;100.00
65983;BME280;52740;40.620;-8.640;2022-07-18T01:01:07;101354.84;;;19.12;100.00
65983;BME280;52740;40.620;-8.640;2022-07-18T01:03:27;101344.91;;;19.11;100.00
65983;BME280;52740;40.620;-8.640;2022-07-18T01:05:28;101357.66;;;19.08;100.00
65983;BME280;52740;40.620;-8.640;2022-07-18T01:07:29;101350.16;;;19.02;100.00
65983;BME280;52740;40.620;-8.640;2022-07-18T01:09:30;101349.72;;;19.07;100.00
65983;BME280;52740;40.620;-8.640;2022-07-18T01:11:31;101353.75;;;18.99;100.00
65983;BME280;52740;40.620;-8.640;2022-07-18T01:13:32;101356.13;;;18.97;100.00
65983;BME280;52740;40.620;-8.640;2022-07-18T01:15:33;101358.91;;;18.97;100.00
65983;BME280;52740;40.620;-8.640;2022-07-18T01:17:34;101359.34;;;18.91;100.00
65983;BME280;52740;40.620;-8.640;2022-07-18T01:19:36;101366.84;;;18.98;100.00
65983;BME280;52740;40.620;-8.640;2022-07-18T01:21:36;101364.88;;;18.99;100.00
65983;BME280;52740;40.620;-8.640;2022-07-18T01:23:37;101368.00;;;19.01;100.00
65983;BME280;52740;40.620;-8.640;2022-07-18T01:25:38;101365.69;;;18.92;100.00
65983;BME280;52740;40.620;-8.640;2022-07-18T01:27:39;101368.47;;;18.92;100.00
65983;BME280;52740;40.620;-8.640;2022-07-18T01:29:39;101372.88;;;18.89;100.00
65983;BME280;52740;40.620;-8.640;2022-07-18T01:31:40;101368.06;;;18.94;100.00
65983;BME280;52740;40.620;-8.640;2022-07-18T01:33:41;101364.53;;;18.89;100.00
65983;BME280;52740;40.620;-8.640;2022-07-18T01:35:42;101368.13;;;18.83;100.00
65983;BME280;52740;40.620;-8.640;2022-07-18T01:37:43;101363.38;;;18.83;100.00
65983;BME280;52740;40.620;-8.640;2022-07-18T01:39:44;101369.31;;;18.85;100.00
65983;BME280;52740;40.620;-8.640;2022-07-18T01:41:45;101362.59;;;18.86;100.00
65983;BME280;52740;40.620;-8.640;2022-07-18T01:43:46;101362.22;;;18.81;100.00
65983;BME280;52740;40.620;-8.640;2022-07-18T01:45:47;101372.53;;;18.80;100.00
65983;BME280;52740;40.620;-8.640;2022-07-18T01:47:48;101369.31;;;18.85;100.00
65983;BME280;52740;40.620;-8.640;2022-07-18T01:49:49;101370.94;;;18.79;100.00
65983;BME280;52740;40.620;-8.640;2022-07-18T01:51:52;101363.50;;;18.66;100.00
65983;BME280;52740;40.620;-8.640;2022-07-18T01:53:56;101367.47;;;18.68;100.00
65983;BME280;52740;40.620;-8.640;2022-07-18T01:55:59;101371.03;;;18.65;100.00
65983;BME280;52740;40.620;-8.640;2022-07-18T01:58:00;101374.69;;;18.55;100.00
65983;BME280;52740;40.620;-8.640;2022-07-18T02:00:01;101368.72;;;18.50;100.00
65983;BME280;52740;40.620;-8.640;2022-07-18T02:02:05;101368.00;;;18.42;100.00
65983;BME280;52740;40.620;-8.640;2022-07-18T02:04:09;101368.75;;;18.46;100.00
65983;BME280;52740;40.620;-8.640;2022-07-18T02:06:10;101370.00;;;18.31;100.00
65983;BME280;52740;40.620;-8.640;2022-07-18T02:08:11;101378.34;;;18.27;100.00
65983;BME280;52740;40.620;-8.640;2022-07-18T02:10:15;101373.59;;;18.28;100.00
65983;BME280;52740;40.620;-8.640;2022-07-18T02:12:16;101371.22;;;18.26;100.00
65983;BME280;52740;40.620;-8.640;2022-07-18T02:14:16;101367.28;;;18.24;100.00
65983;BME280;52740;40.620;-8.640;2022-07-18T02:16:17;101362.13;;;18.22;100.00
65983;BME280;52740;40.620;-8.640;2022-07-18T02:18:18;101363.72;;;18.23;100.00
65983;BME280;52740;40.620;-8.640;2022-07-18T02:20:19;101374.84;;;18.16;100.00
65983;BME280;52740;40.620;-8.640;2022-07-18T02:22:19;101364.88;;;18.26;100.00
65983;BME280;52740;40.620;-8.640;2022-07-18T02:24:20;101369.66;;;18.29;100.00
65983;BME280;52740;40.620;-8.640;2022-07-18T02:26:21;101364.13;;;18.25;100.00
65983;BME280;52740;40.620;-8.640;2022-07-18T02:28:22;101364.50;;;18.24;100.00
65983;BME280;52740;40.620;-8.640;2022-07-18T02:30:23;101366.13;;;18.18;100.00
65983;BME280;52740;40.620;-8.640;2022-07-18T02:32:24;101368.50;;;18.19;100.00
65983;BME280;52740;40.620;-8.640;2022-07-18T02:34:25;101373.66;;;18.14;100.00
65983;BME280;52740;40.620;-8.640;2022-07-18T02:36:25;101361.75;;;18.17;100.00
65983;BME280;52740;40.620;-8.640;2022-07-18T02:38:26;101361.41;;;18.11;100.00
65983;BME280;52740;40.620;-8.640;2022-07-18T02:40:27;101357.06;;;18.07;100.00
65983;BME280;52740;40.620;-8.640;2022-07-18T02:42:28;101357.06;;;18.07;100.00
65983;BME280;52740;40.620;-8.640;2022-07-18T02:44:29;101362.63;;;18.03;100.00
65983;BME280;52740;40.620;-8.640;2022-07-18T02:46:30;101358.28;;;17.98;100.00
65983;BME280;52740;40.620;-8.640;2022-07-18T02:48:30;101360.66;;;17.96;100.00
65983;BME280;52740;40.620;-8.640;2022-07-18T02:50:31;101357.91;;;17.96;100.00
65983;BME280;52740;40.620;-8.640;2022-07-18T02:52:32;101363.84;;;17.98;100.00
65983;BME280;52740;40.620;-8.640;2022-07-18T02:54:34;101366.19;;;18.00;100.00
65983;BME280;52740;40.620;-8.640;2022-07-18T02:56:35;101367.03;;;17.93;100.00
65983;BME280;52740;40.620;-8.640;2022-07-18T02:58:36;101367.78;;;17.97;100.00
65983;BME280;52740;40.620;-8.640;2022-07-18T03:00:37;101367.03;;;17.93;100.00
65983;BME280;52740;40.620;-8.640;2022-07-18T03:02:38;101363.47;;;17.93;100.00
65983;BME280;52740;40.620;-8.640;2022-07-18T03:04:39;101363.84;;;17.95;100.00
65983;BME280;52740;40.620;-8.640;2022-07-18T03:06:40;101363.06;;;17.94;100.00
65983;BME280;52740;40.620;-8.640;2022-07-18T03:08:41;101372.94;;;17.95;100.00
65983;BME280;52740;40.620;-8.640;2022-07-18T03:10:41;101367.03;;;17.93;100.00
65983;BME280;52740;40.620;-8.640;2022-07-18T03:12:42;101366.25;;;17.89;100.00
65983;BME280;52740;40.620;-8.640;2022-07-18T03:14:43;101364.25;;;17.86;100.00
65983;BME280;52740;40.620;-8.640;2022-07-18T03:16:44;101365.47;;;17.78;100.00
65983;BME280;52740;40.620;-8.640;2022-07-18T03:18:44;101367.06;;;17.79;100.00
65983;BME280;52740;40.620;-8.640;2022-07-18T03:20:45;101368.66;;;17.77;100.00
65983;BME280;52740;40.620;-8.640;2022-07-18T03:22:46;101367.47;;;17.81;100.00
65983;BME280;52740;40.620;-8.640;2022-07-18T03:24:46;101369.44;;;17.81;100.00
65983;BME280;52740;40.620;-8.640;2022-07-18T03:26:47;101363.13;;;17.77;100.00
65983;BME280;52740;40.620;-8.640;2022-07-18T03:28:48;101371.81;;;17.79;100.00
65983;BME280;52740;40.620;-8.640;2022-07-18T03:30:49;101370.66;;;17.76;100.00
65983;BME280;52740;40.620;-8.640;2022-07-18T03:32:49;101373.00;;;17.78;100.00
65983;BME280;52740;40.620;-8.640;2022-07-18T03:34:50;101375.75;;;17.78;100.00
65983;BME280;52740;40.620;-8.640;2022-07-18T03:36:51;101381.31;;;17.74;100.00
65983;BME280;52740;40.620;-8.640;2022-07-18T03:38:51;101378.97;;;17.76;100.00
65983;BME280;52740;40.620;-8.640;2022-07-18T03:40:52;101376.56;;;17.75;100.00
65983;BME280;52740;40.620;-8.640;2022-07-18T03:42:53;101372.63;;;17.72;100.00
65983;BME280;52740;40.620;-8.640;2022-07-18T03:44:54;101384.09;;;17.74;100.00
65983;BME280;52740;40.620;-8.640;2022-07-18T03:46:54;101384.88;;;17.75;100.00
65983;BME280;52740;40.620;-8.640;2022-07-18T03:48:55;101382.13;;;17.71;100.00
65983;BME280;52740;40.620;-8.640;2022-07-18T03:50:56;101389.22;;;17.79;100.00
65983;BME280;52740;40.620;-8.640;2022-07-18T03:52:57;101382.16;;;17.68;100.00
65983;BME280;52740;40.620;-8.640;2022-07-18T03:54:57;101374.22;;;17.70;100.00
65983;BME280;52740;40.620;-8.640;2022-07-18T03:57:01;101369.47;;;17.70;100.00
65983;BME280;52740;40.620;-8.640;2022-07-18T03:59:02;101382.53;;;17.66;100.00
65983;BME280;52740;40.620;-8.640;2022-07-18T04:01:03;101379.00;;;17.59;100.00
65983;BME280;52740;40.620;-8.640;2022-07-18T04:03:04;101391.25;;;17.61;100.00
65983;BME280;52740;40.620;-8.640;2022-07-18T04:05:05;101388.47;;;17.61;100.00
65983;BME280;52740;40.620;-8.640;2022-07-18T04:07:06;101384.53;;;17.59;100.00
65983;BME280;52740;40.620;-8.640;2022-07-18T04:09:07;101380.16;;;17.57;100.00
65983;BME280;52740;40.620;-8.640;2022-07-18T04:11:08;101386.06;;;17.56;100.00
65983;BME280;52740;40.620;-8.640;2022-07-18T04:13:09;101396.78;;;17.54;100.00
65983;BME280;52740;40.620;-8.640;2022-07-18T04:15:10;101391.63;;;17.52;100.00
65983;BME280;52740;40.620;-8.640;2022-07-18T04:17:10;101389.28;;;17.58;100.00
65983;BME280;52740;40.620;-8.640;2022-07-18T04:19:11;101388.47;;;17.57;100.00
65983;BME280;52740;40.620;-8.640;2022-07-18T04:21:12;101382.16;;;17.50;100.00
65983;BME280;52740;40.620;-8.640;2022-07-18T04:23:13;101388.84;;;17.52;100.00
65983;BME280;52740;40.620;-8.640;2022-07-18T04:25:14;101390.88;;;17.59;100.00
65983;BME280;52740;40.620;-8.640;2022-07-18T04:27:14;101397.97;;;17.53;100.00
65983;BME280;52740;40.620;-8.640;2022-07-18T04:29:15;101381.72;;;17.51;100.00
65983;BME280;52740;40.620;-8.640;2022-07-18T04:31:16;101394.41;;;17.49;100.00
65983;BME280;52740;40.620;-8.640;2022-07-18T04:33:16;101386.91;;;17.46;100.00
65983;BME280;52740;40.620;-8.640;2022-07-18T04:35:17;101405.06;;;17.47;100.00
65983;BME280;52740;40.620;-8.640;2022-07-18T04:37:18;101390.44;;;17.43;100.00
65983;BME280;52740;40.620;-8.640;2022-07-18T04:39:19;101403.50;;;17.42;100.00
65983;BME280;52740;40.620;-8.640;2022-07-18T04:41:19;101405.47;;;17.38;100.00
65983;BME280;52740;40.620;-8.640;2022-07-18T04:43:23;101392.84;;;17.41;100.00
65983;BME280;52740;40.620;-8.640;2022-07-18T04:45:23;101396.78;;;17.40;100.00
65983;BME280;52740;40.620;-8.640;2022-07-18T04:47:25;101399.56;;;17.33;100.00
65983;BME280;52740;40.620;-8.640;2022-07-18T04:49:26;101389.28;;;17.37;100.00
65983;BME280;52740;40.620;-8.640;2022-07-18T04:51:27;101401.56;;;17.29;100.00
65983;BME280;52740;40.620;-8.640;2022-07-18T04:53:27;101402.31;;;17.29;100.00
65983;BME280;52740;40.620;-8.640;2022-07-18T04:55:28;101394.81;;;17.26;100.00
65983;BME280;52740;40.620;-8.640;2022-07-18T04:57:29;101397.59;;;17.23;100.00
65983;BME280;52740;40.620;-8.640;2022-07-18T04:59:30;101386.91;;;17.18;100.00
65983;BME280;52740;40.620;-8.640;2022-07-18T05:01:30;101384.53;;;17.12;100.00
65983;BME280;52740;40.620;-8.640;2022-07-18T05:03:32;101390.06;;;17.12;100.00
65983;BME280;52740;40.620;-8.640;2022-07-18T05:05:33;101397.56;;;17.12;100.00
65983;BME280;52740;40.620;-8.640;2022-07-18T05:07:34;101393.25;;;17.15;100.00
65983;BME280;52740;40.620;-8.640;2022-07-18T05:09:34;101381.34;;;17.07;100.00
65983;BME280;52740;40.620;-8.640;2022-07-18T05:11:35;101387.72;;;17.11;100.00
65983;BME280;52740;40.620;-8.640;2022-07-18T05:13:35;101392.44;;;17.07;100.00
65983;BME280;52740;40.620;-8.640;2022-07-18T05:15:36;101404.28;;;17.07;100.00
65983;BME280;52740;40.620;-8.640;2022-07-18T05:17:38;101399.56;;;17.11;100.00
65983;BME280;52740;40.620;-8.640;2022-07-18T05:19:39;101407.84;;;17.08;100.00
65983;BME280;52740;40.620;-8.640;2022-07-18T05:21:39;101407.09;;;17.11;100.00
65983;BME280;52740;40.620;-8.640;2022-07-18T05:23:40;101411.81;;;17.07;100.00
65983;BME280;52740;40.620;-8.640;2022-07-18T05:25:41;101411.44;;;17.01;100.00
65983;BME280;52740;40.620;-8.640;2022-07-18T05:27:42;101417.72;;;16.98;100.00
65983;BME280;52740;40.620;-8.640;2022-07-18T05:29:43;101424.84;;;16.99;100.00
65983;BME280;52740;40.620;-8.640;2022-07-18T05:31:44;101426.41;;;16.90;100.00
65983;BME280;52740;40.620;-8.640;2022-07-18T05:33:44;101434.72;;;16.90;100.00
65983;BME280;52740;40.620;-8.640;2022-07-18T05:35:45;101426.81;;;16.88;100.00
65983;BME280;52740;40.620;-8.640;2022-07-18T05:37:46;101428.00;;;16.94;100.00
65983;BME280;52740;40.620;-8.640;2022-07-18T05:39:47;101428.41;;;17.03;100.00
65983;BME280;52740;40.620;-8.640;2022-07-18T05:41:48;101431.19;;;16.93;100.00
65983;BME280;52740;40.620;-8.640;2022-07-18T05:43:49;101435.94;;;16.96;100.00
65983;BME280;52740;40.620;-8.640;2022-07-18T05:45:50;101440.28;;;17.00;100.00
65983;BME280;52740;40.620;-8.640;2022-07-18T05:47:52;101446.59;;;17.04;100.00
65983;BME280;52740;40.620;-8.640;2022-07-18T05:49:53;101442.66;;;17.05;100.00
65983;BME280;52740;40.620;-8.640;2022-07-18T05:51:53;101450.59;;;17.18;100.00
65983;BME280;52740;40.620;-8.640;2022-07-18T05:53:54;101443.47;;;17.24;100.00
65983;BME280;52740;40.620;-8.640;2022-07-18T05:55:55;101454.16;;;17.29;100.00
65983;BME280;52740;40.620;-8.640;2022-07-18T05:57:56;101452.56;;;17.38;100.00
65983;BME280;52740;40.620;-8.640;2022-07-18T05:59:57;101445.06;;;17.53;100.00
65983;BME280;52740;40.620;-8.640;2022-07-18T06:01:57;101444.69;;;17.72;100.00
65983;BME280;52740;40.620;-8.640;2022-07-18T06:03:58;101441.47;;;17.77;100.00
65983;BME280;52740;40.620;-8.640;2022-07-18T06:05:59;101433.97;;;17.78;100.00
65983;BME280;52740;40.620;-8.640;2022-07-18T06:08:00;101441.09;;;17.89;100.00
65983;BME280;52740;40.620;-8.640;2022-07-18T06:10:00;101443.03;;;17.92;100.00
65983;BME280;52740;40.620;-8.640;2022-07-18T06:12:01;101442.63;;;17.90;100.00
65983;BME280;52740;40.620;-8.640;2022-07-18T06:14:02;101439.88;;;17.97;100.00
65983;BME280;52740;40.620;-8.640;2022-07-18T06:16:04;101441.84;;;18.00;100.00
65983;BME280;52740;40.620;-8.640;2022-07-18T06:18:05;101436.69;;;17.99;100.00
65983;BME280;52740;40.620;-8.640;2022-07-18T06:20:06;101450.13;;;18.04;100.00
65983;BME280;52740;40.620;-8.640;2022-07-18T06:22:08;101440.19;;;18.17;100.00
65983;BME280;52740;40.620;-8.640;2022-07-18T06:24:09;101446.91;;;18.27;100.00
65983;BME280;52740;40.620;-8.640;2022-07-18T06:26:10;101441.38;;;18.23;100.00
65983;BME280;52740;40.620;-8.640;2022-07-18T06:28:11;101447.66;;;18.31;100.00
65983;BME280;52740;40.620;-8.640;2022-07-18T06:30:12;101446.03;;;18.44;100.00
65983;BME280;52740;40.620;-8.640;2022-07-18T06:32:12;101441.34;;;18.34;100.00
65983;BME280;52740;40.620;-8.640;2022-07-18T06:34:13;101441.28;;;18.55;100.00
65983;BME280;52740;40.620;-8.640;2022-07-18T06:36:14;101442.75;;;18.77;100.00
65983;BME280;52740;40.620;-8.640;2022-07-18T06:38:15;101440.59;;;19.03;100.00
65983;BME280;52740;40.620;-8.640;2022-07-18T06:40:16;101433.28;;;19.23;100.00
65983;BME280;52740;40.620;-8.640;2022-07-18T06:42:17;101425.44;;;19.62;100.00
65983;BME280;52740;40.620;-8.640;2022-07-18T06:44:18;101432.09;;;20.09;100.00
65983;BME280;52740;40.620;-8.640;2022-07-18T06:46:18;101423.94;;;20.59;100.00
65983;BME280;52740;40.620;-8.640;2022-07-18T06:48:20;101419.97;;;21.37;100.00
65983;BME280;52740;40.620;-8.640;2022-07-18T06:50:21;101413.16;;;22.44;100.00
65983;BME280;52740;40.620;-8.640;2022-07-18T06:52:21;101407.53;;;23.00;100.00
65983;BME280;52740;40.620;-8.640;2022-07-18T06:54:22;101404.91;;;23.57;100.00
65983;BME280;52740;40.620;-8.640;2022-07-18T06:56:28;101414.44;;;24.59;100.00
65983;BME280;52740;40.620;-8.640;2022-07-18T06:58:29;101410.88;;;25.09;100.00
65983;BME280;52740;40.620;-8.640;2022-07-18T07:00:31;101419.31;;;26.12;100.00
65983;BME280;52740;40.620;-8.640;2022-07-18T07:02:31;101417.41;;;26.83;100.00
65983;BME280;52740;40.620;-8.640;2022-07-18T07:04:33;101417.16;;;27.67;100.00
65983;BME280;52740;40.620;-8.640;2022-07-18T07:06:34;101427.44;;;28.43;96.04
65983;BME280;52740;40.620;-8.640;2022-07-18T07:08:37;101420.09;;;28.36;93.70
65983;BME280;52740;40.620;-8.640;2022-07-18T07:10:38;101423.44;;;29.09;85.19
65983;BME280;52740;40.620;-8.640;2022-07-18T07:12:41;101426.47;;;29.53;82.34
65983;BME280;52740;40.620;-8.640;2022-07-18T07:14:42;101420.69;;;29.72;77.92
65983;BME280;52740;40.620;-8.640;2022-07-18T07:16:43;101424.66;;;29.65;77.67
65983;BME280;52740;40.620;-8.640;2022-07-18T07:18:44;101423.53;;;28.91;83.10
65983;BME280;52740;40.620;-8.640;2022-07-18T07:20:44;101427.47;;;28.85;83.75
65983;BME280;52740;40.620;-8.640;2022-07-18T07:22:49;101432.47;;;29.70;76.59
65983;BME280;52740;40.620;-8.640;2022-07-18T07:24:50;101429.16;;;30.25;72.30
65983;BME280;52740;40.620;-8.640;2022-07-18T07:26:51;101419.13;;;30.09;72.03
65983;BME280;52740;40.620;-8.640;2022-07-18T07:28:52;101428.69;;;29.49;75.16
65983;BME280;52740;40.620;-8.640;2022-07-18T07:30:53;101430.53;;;29.76;74.07
65983;BME280;52740;40.620;-8.640;2022-07-18T07:32:53;101424.47;;;29.92;74.19
65983;BME280;52740;40.620;-8.640;2022-07-18T07:34:54;101434.56;;;30.67;70.31
65983;BME280;52740;40.620;-8.640;2022-07-18T07:36:55;101434.50;;;30.96;64.72
65983;BME280;52740;40.620;-8.640;2022-07-18T07:38:56;101420.81;;;31.90;61.33
65983;BME280;52740;40.620;-8.640;2022-07-18T07:40:57;101427.53;;;32.13;59.38
65983;BME280;52740;40.620;-8.640;2022-07-18T07:43:09;101437.44;;;31.57;60.21
65983;BME280;52740;40.620;-8.640;2022-07-18T07:45:12;101436.63;;;31.36;58.78
65983;BME280;52740;40.620;-8.640;2022-07-18T07:47:13;101430.09;;;31.91;57.84
65983;BME280;52740;40.620;-8.640;2022-07-18T07:49:14;101441.44;;;32.11;57.38
65983;BME280;52740;40.620;-8.640;2022-07-18T07:51:15;101432.25;;;32.73;55.04
65983;BME280;52740;40.620;-8.640;2022-07-18T07:53:16;101430.88;;;32.11;55.27
65983;BME280;52740;40.620;-8.640;2022-07-18T07:55:17;101434.69;;;32.60;54.69
65983;BME280;52740;40.620;-8.640;2022-07-18T07:57:18;101435.22;;;32.95;52.81
65983;BME280;52740;40.620;-8.640;2022-07-18T07:59:19;101434.50;;;33.43;51.70
65983;BME280;52740;40.620;-8.640;2022-07-18T08:01:20;101435.31;;;32.44;53.33
65983;BME280;52740;40.620;-8.640;2022-07-18T08:03:20;101427.53;;;32.65;53.23
65983;BME280;52740;40.620;-8.640;2022-07-18T08:05:24;101433.63;;;32.89;52.41
65983;BME280;52740;40.620;-8.640;2022-07-18T08:07:25;101432.75;;;33.57;50.20
65983;BME280;52740;40.620;-8.640;2022-07-18T08:09:26;101430.31;;;34.03;48.46
65983;BME280;52740;40.620;-8.640;2022-07-18T08:11:27;101427.28;;;34.34;46.67
65983;BME280;52740;40.620;-8.640;2022-07-18T08:13:27;101434.88;;;33.67;47.40
65983;BME280;52740;40.620;-8.640;2022-07-18T08:15:28;101429.34;;;33.52;47.30
65983;BME280;52740;40.620;-8.640;2022-07-18T08:17:29;101448.16;;;33.39;48.15
65983;BME280;52740;40.620;-8.640;2022-07-18T08:19:29;101436.50;;;33.90;47.62
65983;BME280;52740;40.620;-8.640;2022-07-18T08:21:30;101439.44;;;34.24;46.34
65983;BME280;52740;40.620;-8.640;2022-07-18T08:23:31;101439.44;;;34.85;44.84
65983;BME280;52740;40.620;-8.640;2022-07-18T08:25:35;101436.06;;;34.98;44.62
65983;BME280;52740;40.620;-8.640;2022-07-18T08:27:39;101437.06;;;34.11;45.81
65983;BME280;52740;40.620;-8.640;2022-07-18T08:29:40;101432.69;;;34.99;44.31
65983;BME280;52740;40.620;-8.640;2022-07-18T08:31:41;101437.56;;;35.32;43.60
65983;BME280;52740;40.620;-8.640;2022-07-18T08:33:42;101430.59;;;35.22;44.06
65983;BME280;52740;40.620;-8.640;2022-07-18T08:35:42;101436.53;;;35.30;43.80
65983;BME280;52740;40.620;-8.640;2022-07-18T08:37:43;101444.72;;;35.66;42.16
65983;BME280;52740;40.620;-8.640;2022-07-18T08:39:44;101438.97;;;35.72;42.78
65983;BME280;52740;40.620;-8.640;2022-07-18T08:41:46;101427.22;;;35.92;42.25
65983;BME280;52740;40.620;-8.640;2022-07-18T08:46:50;101439.25;;;35.68;42.09
65983;BME280;52740;40.620;-8.640;2022-07-18T08:48:52;101431.88;;;35.26;42.19
65983;BME280;52740;40.620;-8.640;2022-07-18T08:50:55;101434.00;;;34.59;43.90
65983;BME280;52740;40.620;-8.640;2022-07-18T08:52:56;101430.38;;;34.98;42.37
65983;BME280;52740;40.620;-8.640;2022-07-18T08:54:57;101421.63;;;34.40;44.01
65983;BME280;52740;40.620;-8.640;2022-07-18T08:56:58;101423.94;;;34.47;43.55
65983;BME280;52740;40.620;-8.640;2022-07-18T08:59:00;101422.59;;;34.98;42.04
65983;BME280;52740;40.620;-8.640;2022-07-18T09:01:03;101431.53;;;35.47;41.50
65983;BME280;52740;40.620;-8.640;2022-07-18T09:03:04;101438.91;;;35.89;40.17
65983;BME280;52740;40.620;-8.640;2022-07-18T09:05:05;101417.09;;;36.32;39.61
65983;BME280;52740;40.620;-8.640;2022-07-18T09:07:26;101423.59;;;35.86;40.46
65983;BME280;52740;40.620;-8.640;2022-07-18T09:09:28;101431.44;;;36.21;40.00
65983;BME280;52740;40.620;-8.640;2022-07-18T09:11:28;101425.00;;;36.15;40.34
65983;BME280;52740;40.620;-8.640;2022-07-18T09:13:37;101428.38;;;36.08;39.21
65983;BME280;52740;40.620;-8.640;2022-07-18T09:15:59;101424.44;;;36.22;38.99
65983;BME280;52740;40.620;-8.640;2022-07-18T09:18:00;101426.38;;;36.38;39.02
65983;BME280;52740;40.620;-8.640;2022-07-18T09:20:12;101427.91;;;36.04;39.01
65983;BME280;52740;40.620;-8.640;2022-07-18T09:22:20;101421.72;;;35.42;40.27
65983;BME280;52740;40.620;-8.640;2022-07-18T09:24:21;101424.19;;;35.74;39.90
65983;BME280;52740;40.620;-8.640;2022-07-18T09:26:42;101423.09;;;36.29;39.25
65983;BME280;52740;40.620;-8.640;2022-07-18T09:28:47;101434.38;;;36.04;39.05
65983;BME280;52740;40.620;-8.640;2022-07-18T09:30:48;101427.00;;;36.61;38.11
65983;BME280;52740;40.620;-8.640;2022-07-18T09:35:20;101430.09;;;36.87;38.07
65983;BME280;52740;40.620;-8.640;2022-07-18T09:37:21;101421.97;;;36.73;37.27
65983;BME280;52740;40.620;-8.640;2022-07-18T09:39:22;101436.94;;;36.49;37.02
65983;BME280;52740;40.620;-8.640;2022-07-18T09:41:28;101444.72;;;35.66;37.48
65983;BME280;52740;40.620;-8.640;2022-07-18T09:43:37;101434.78;;;34.26;39.76
65983;BME280;52740;40.620;-8.640;2022-07-18T09:45:43;101429.31;;;34.12;40.88
65983;BME280;52740;40.620;-8.640;2022-07-18T09:47:49;101436.09;;;34.31;40.29
65983;BME280;52740;40.620;-8.640;2022-07-18T09:49:54;101426.97;;;33.40;42.24
65983;BME280;52740;40.620;-8.640;2022-07-18T09:52:08;101431.84;;;33.28;43.20
65983;BME280;52740;40.620;-8.640;2022-07-18T09:54:09;101430.56;;;33.94;41.56
65983;BME280;52740;40.620;-8.640;2022-07-18T09:56:12;101433.13;;;33.86;41.59
65983;BME280;52740;40.620;-8.640;2022-07-18T09:58:15;101439.19;;;32.72;43.86
65983;BME280;52740;40.620;-8.640;2022-07-18T10:00:17;101442.06;;;33.63;42.89
65983;BME280;52740;40.620;-8.640;2022-07-18T10:02:18;101439.16;;;34.27;41.94
65983;BME280;52740;40.620;-8.640;2022-07-18T10:04:19;101439.97;;;34.39;40.85
65983;BME280;52740;40.620;-8.640;2022-07-18T10:06:20;101449.31;;;34.78;40.14
65983;BME280;52740;40.620;-8.640;2022-07-18T10:08:25;101438.28;;;32.86;43.33
65983;BME280;52740;40.620;-8.640;2022-07-18T10:10:28;101439.34;;;31.65;46.97
65983;BME280;52740;40.620;-8.640;2022-07-18T10:12:29;101438.28;;;32.86;44.85
65983;BME280;52740;40.620;-8.640;2022-07-18T10:14:31;101450.31;;;34.31;42.71
65983;BME280;52740;40.620;-8.640;2022-07-18T10:16:32;101447.44;;;34.20;44.98
65983;BME280;52740;40.620;-8.640;2022-07-18T10:18:35;101445.16;;;34.68;44.12
65983;BME280;52740;40.620;-8.640;2022-07-18T10:20:38;101454.44;;;35.19;43.26
65983;BME280;52740;40.620;-8.640;2022-07-18T10:22:40;101444.88;;;33.57;45.56
65983;BME280;52740;40.620;-8.640;2022-07-18T10:24:45;101443.69;;;32.90;47.53
65983;BME280;52740;40.620;-8.640;2022-07-18T10:27:18;101440.06;;;31.81;50.65